sensor_id;sensor_type;location;lat;lon;timestamp;temperature;humidity
8114;DHT22;4099;52.684;9.918;2023-04-01T00:02:29;9.70;99.90
8114;DHT22;4099;52.684;9.918;2023-04-01T00:07:33;9.70;99.90
8114;DHT22;4099;52.684;9.918;2023-04-01T00:12:35;9.70;99.90
8114;DHT22;4099;52.684;9.918;2023-04-01T00:17:37;9.70;99.90
8114;DHT22;4099;52.684;9.918;2023-04-01T00:22:40;9.60;99.90
8114;DHT22;4099;52.684;9.918;2023-04-01T00:27:42;9.60;99.90
8114;DHT22;4099;52.684;9.918;2023-04-01T00:32:44;9.60;99.90
8114;DHT22;4099;52.684;9.918;2023-04-01T00:37:47;9.60;99.90
8114;DHT22;4099;52.684;9.918;2023-04-01T00:42:50;9.60;99.90
8114;DHT22;4099;52.684;9.918;2023-04-01T00:47:51;9.70;99.90
8114;DHT22;4099;52.684;9.918;2023-04-01T00:52:55;9.70;99.90
8114;DHT22;4099;52.684;9.918;2023-04-01T00:57:57;9.70;99.90
8114;DHT22;4099;52.684;9.918;2023-04-01T01:03:00;9.60;99.90
8114;DHT22;4099;52.684;9.918;2023-04-01T01:08:11;9.70;99.90
8114;DHT22;4099;52.684;9.918;2023-04-01T01:13:20;9.70;99.90
8114;DHT22;4099;52.684;9.918;2023-04-01T01:18:33;9.70;99.90
8114;DHT22;4099;52.684;9.918;2023-04-01T01:29:22;9.70;99.90
8114;DHT22;4099;52.684;9.918;2023-04-01T01:34:32;9.70;99.90
8114;DHT22;4099;52.684;9.918;2023-04-01T01:39:40;9.70;99.90
8114;DHT22;4099;52.684;9.918;2023-04-01T01:44:44;9.70;99.90
8114;DHT22;4099;52.684;9.918;2023-04-01T01:49:48;9.70;99.90
8114;DHT22;4099;52.684;9.918;2023-04-01T01:54:54;9.60;99.90
8114;DHT22;4099;52.684;9.918;2023-04-01T02:00:03;9.60;99.90
8114;DHT22;4099;52.684;9.918;2023-04-01T02:05:16;9.60;99.90
8114;DHT22;4099;52.684;9.918;2023-04-01T02:10:22;9.60;99.90
8114;DHT22;4099;52.684;9.918;2023-04-01T02:15:28;9.60;99.90
8114;DHT22;4099;52.684;9.918;2023-04-01T02:20:32;9.60;99.90
8114;DHT22;4099;52.684;9.918;2023-04-01T02:25:36;9.60;99.90
8114;DHT22;4099;52.684;9.918;2023-04-01T02:30:39;9.60;99.90
8114;DHT22;4099;52.684;9.918;2023-04-01T02:35:43;9.60;99.90
8114;DHT22;4099;52.684;9.918;2023-04-01T02:40:48;9.60;99.90
8114;DHT22;4099;52.684;9.918;2023-04-01T02:45:50;9.50;99.90
8114;DHT22;4099;52.684;9.918;2023-04-01T02:50:52;9.60;99.90
8114;DHT22;4099;52.684;9.918;2023-04-01T02:55:55;9.60;99.90
8114;DHT22;4099;52.684;9.918;2023-04-01T03:00:59;9.60;99.90
8114;DHT22;4099;52.684;9.918;2023-04-01T03:06:05;9.50;99.90
8114;DHT22;4099;52.684;9.918;2023-04-01T03:11:09;9.50;99.90
8114;DHT22;4099;52.684;9.918;2023-04-01T03:16:11;9.50;99.90
8114;DHT22;4099;52.684;9.918;2023-04-01T03:21:14;9.40;99.90
8114;DHT22;4099;52.684;9.918;2023-04-01T03:26:18;9.40;99.90
8114;DHT22;4099;52.684;9.918;2023-04-01T03:31:20;9.40;99.90
8114;DHT22;4099;52.684;9.918;2023-04-01T03:36:26;9.40;99.90
8114;DHT22;4099;52.684;9.918;2023-04-01T03:41:30;9.50;99.90
8114;DHT22;4099;52.684;9.918;2023-04-01T03:46:32;9.40;99.90
8114;DHT22;4099;52.684;9.918;2023-04-01T03:51:34;9.40;99.90
8114;DHT22;4099;52.684;9.918;2023-04-01T03:56:37;9.40;99.90
8114;DHT22;4099;52.684;9.918;2023-04-01T04:01:39;9.40;99.90
8114;DHT22;4099;52.684;9.918;2023-04-01T04:06:41;9.30;99.90
8114;DHT22;4099;52.684;9.918;2023-04-01T04:11:44;9.40;99.90
8114;DHT22;4099;52.684;9.918;2023-04-01T04:16:46;9.40;99.90
8114;DHT22;4099;52.684;9.918;2023-04-01T04:21:47;9.30;99.90
8114;DHT22;4099;52.684;9.918;2023-04-01T04:26:52;9.30;99.90
8114;DHT22;4099;52.684;9.918;2023-04-01T04:31:55;9.30;99.90
8114;DHT22;4099;52.684;9.918;2023-04-01T04:36:56;9.30;99.90
8114;DHT22;4099;52.684;9.918;2023-04-01T04:42:05;9.30;99.90
8114;DHT22;4099;52.684;9.918;2023-04-01T04:47:10;9.30;99.90
8114;DHT22;4099;52.684;9.918;2023-04-01T04:52:12;9.30;99.90
8114;DHT22;4099;52.684;9.918;2023-04-01T04:57:15;9.30;99.90
8114;DHT22;4099;52.684;9.918;2023-04-01T05:02:24;9.30;99.90
8114;DHT22;4099;52.684;9.918;2023-04-01T05:07:26;9.40;99.90
8114;DHT22;4099;52.684;9.918;2023-04-01T05:12:29;9.30;99.90
8114;DHT22;4099;52.684;9.918;2023-04-01T05:17:35;9.30;99.90
8114;DHT22;4099;52.684;9.918;2023-04-01T05:22:38;9.30;99.90
8114;DHT22;4099;52.684;9.918;2023-04-01T05:27:42;9.30;99.90
8114;DHT22;4099;52.684;9.918;2023-04-01T05:32:43;9.40;99.90
8114;DHT22;4099;52.684;9.918;2023-04-01T05:37:45;9.40;99.90
8114;DHT22;4099;52.684;9.918;2023-04-01T05:42:48;9.50;99.90
8114;DHT22;4099;52.684;9.918;2023-04-01T05:47:51;9.40;99.90
8114;DHT22;4099;52.684;9.918;2023-04-01T05:52:53;9.50;99.90
8114;DHT22;4099;52.684;9.918;2023-04-01T05:57:57;9.50;99.90
8114;DHT22;4099;52.684;9.918;2023-04-01T06:03:01;9.50;99.90
8114;DHT22;4099;52.684;9.918;2023-04-01T06:08:09;9.50;99.90
8114;DHT22;4099;52.684;9.918;2023-04-01T06:13:20;9.60;99.90
8114;DHT22;4099;52.684;9.918;2023-04-01T06:18:38;9.60;99.90
8114;DHT22;4099;52.684;9.918;2023-04-01T06:23:52;9.70;99.90
8114;DHT22;4099;52.684;9.918;2023-04-01T06:29:14;9.80;99.90
8114;DHT22;4099;52.684;9.918;2023-04-01T06:34:33;10.00;99.90
8114;DHT22;4099;52.684;9.918;2023-04-01T06:39:52;10.20;99.90
8114;DHT22;4099;52.684;9.918;2023-04-01T06:45:10;10.30;99.90
8114;DHT22;4099;52.684;9.918;2023-04-01T06:50:36;10.40;99.90
8114;DHT22;4099;52.684;9.918;2023-04-01T06:56:19;10.50;99.90
8114;DHT22;4099;52.684;9.918;2023-04-01T07:01:37;10.60;99.90
8114;DHT22;4099;52.684;9.918;2023-04-01T07:06:45;10.70;99.90
8114;DHT22;4099;52.684;9.918;2023-04-01T07:11:48;10.90;99.90
8114;DHT22;4099;52.684;9.918;2023-04-01T07:17:15;10.90;99.90
8114;DHT22;4099;52.684;9.918;2023-04-01T07:22:26;11.00;99.90
8114;DHT22;4099;52.684;9.918;2023-04-01T07:27:44;11.10;99.90
8114;DHT22;4099;52.684;9.918;2023-04-01T07:32:51;11.00;99.90
8114;DHT22;4099;52.684;9.918;2023-04-01T07:38:03;10.90;99.90
8114;DHT22;4099;52.684;9.918;2023-04-01T07:43:20;11.00;99.90
8114;DHT22;4099;52.684;9.918;2023-04-01T07:48:43;11.20;99.90
8114;DHT22;4099;52.684;9.918;2023-04-01T07:53:50;11.50;99.90
8114;DHT22;4099;52.684;9.918;2023-04-01T07:59:00;11.80;99.90
8114;DHT22;4099;52.684;9.918;2023-04-01T08:04:55;12.00;99.90
8114;DHT22;4099;52.684;9.918;2023-04-01T08:10:04;12.20;99.90
8114;DHT22;4099;52.684;9.918;2023-04-01T08:15:33;12.40;99.90
8114;DHT22;4099;52.684;9.918;2023-04-01T08:20:51;12.60;99.90
8114;DHT22;4099;52.684;9.918;2023-04-01T08:26:00;12.60;99.90
8114;DHT22;4099;52.684;9.918;2023-04-01T08:31:12;12.70;99.90
8114;DHT22;4099;52.684;9.918;2023-04-01T08:36:23;12.70;99.90
8114;DHT22;4099;52.684;9.918;2023-04-01T08:41:58;12.80;99.90
8114;DHT22;4099;52.684;9.918;2023-04-01T08:47:34;13.10;99.90
8114;DHT22;4099;52.684;9.918;2023-04-01T08:52:47;13.10;99.90
8114;DHT22;4099;52.684;9.918;2023-04-01T08:58:01;13.20;99.90
8114;DHT22;4099;52.684;9.918;2023-04-01T09:03:35;13.30;99.90
8114;DHT22;4099;52.684;9.918;2023-04-01T09:08:57;13.20;99.90
8114;DHT22;4099;52.684;9.918;2023-04-01T09:14:26;13.10;99.90
8114;DHT22;4099;52.684;9.918;2023-04-01T09:20:07;13.10;99.90
8114;DHT22;4099;52.684;9.918;2023-04-01T09:25:30;13.00;99.90
8114;DHT22;4099;52.684;9.918;2023-04-01T09:31:08;13.10;99.90
8114;DHT22;4099;52.684;9.918;2023-04-01T09:36:39;13.00;99.90
8114;DHT22;4099;52.684;9.918;2023-04-01T09:41:57;12.80;99.90
8114;DHT22;4099;52.684;9.918;2023-04-01T09:47:27;12.80;99.90
8114;DHT22;4099;52.684;9.918;2023-04-01T09:52:36;12.90;99.90
8114;DHT22;4099;52.684;9.918;2023-04-01T09:58:19;12.90;99.90
8114;DHT22;4099;52.684;9.918;2023-04-01T10:04:06;13.00;99.90
8114;DHT22;4099;52.684;9.918;2023-04-01T10:09:55;12.90;99.90
8114;DHT22;4099;52.684;9.918;2023-04-01T10:21:05;13.10;99.90
8114;DHT22;4099;52.684;9.918;2023-04-01T10:26:43;13.20;99.90
8114;DHT22;4099;52.684;9.918;2023-04-01T10:43:50;12.70;99.90
8114;DHT22;4099;52.684;9.918;2023-04-01T10:49:28;12.50;99.90
8114;DHT22;4099;52.684;9.918;2023-04-01T10:54:46;12.00;99.90
8114;DHT22;4099;52.684;9.918;2023-04-01T11:00:51;11.90;99.90
8114;DHT22;4099;52.684;9.918;2023-04-01T11:12:21;11.90;99.90
8114;DHT22;4099;52.684;9.918;2023-04-01T11:17:42;12.10;99.90
8114;DHT22;4099;52.684;9.918;2023-04-01T11:23:18;12.10;99.90
8114;DHT22;4099;52.684;9.918;2023-04-01T11:34:08;12.10;99.90
8114;DHT22;4099;52.684;9.918;2023-04-01T11:39:20;12.10;99.90
8114;DHT22;4099;52.684;9.918;2023-04-01T11:44:52;12.80;99.90
8114;DHT22;4099;52.684;9.918;2023-04-01T11:50:18;13.30;99.90
8114;DHT22;4099;52.684;9.918;2023-04-01T11:55:35;14.00;99.90
8114;DHT22;4099;52.684;9.918;2023-04-01T12:00:51;14.00;99.90
8114;DHT22;4099;52.684;9.918;2023-04-01T12:06:02;13.60;99.90
8114;DHT22;4099;52.684;9.918;2023-04-01T12:11:12;12.70;99.90
8114;DHT22;4099;52.684;9.918;2023-04-01T12:16:41;12.30;99.90
8114;DHT22;4099;52.684;9.918;2023-04-01T12:21:54;11.60;99.90
8114;DHT22;4099;52.684;9.918;2023-04-01T12:27:10;11.10;99.90
8114;DHT22;4099;52.684;9.918;2023-04-01T12:32:23;10.90;99.90
8114;DHT22;4099;52.684;9.918;2023-04-01T12:37:34;10.70;99.90
8114;DHT22;4099;52.684;9.918;2023-04-01T12:42:50;10.50;99.90
8114;DHT22;4099;52.684;9.918;2023-04-01T12:48:10;10.30;99.90
8114;DHT22;4099;52.684;9.918;2023-04-01T12:53:33;10.20;99.90
8114;DHT22;4099;52.684;9.918;2023-04-01T12:59:02;10.00;99.90
8114;DHT22;4099;52.684;9.918;2023-04-01T13:10:00;9.90;99.90
8114;DHT22;4099;52.684;9.918;2023-04-01T13:15:11;9.90;99.90
8114;DHT22;4099;52.684;9.918;2023-04-01T13:20:23;9.90;99.90
8114;DHT22;4099;52.684;9.918;2023-04-01T13:25:36;9.80;99.90
8114;DHT22;4099;52.684;9.918;2023-04-01T13:30:44;9.60;99.90
8114;DHT22;4099;52.684;9.918;2023-04-01T13:35:56;9.50;99.90
8114;DHT22;4099;52.684;9.918;2023-04-01T13:41:12;9.60;99.90
8114;DHT22;4099;52.684;9.918;2023-04-01T13:46:43;9.80;99.90
8114;DHT22;4099;52.684;9.918;2023-04-01T13:52:14;9.80;99.90
8114;DHT22;4099;52.684;9.918;2023-04-01T13:57:34;9.70;99.90
8114;DHT22;4099;52.684;9.918;2023-04-01T14:02:48;9.40;99.90
8114;DHT22;4099;52.684;9.918;2023-04-01T14:08:01;9.50;99.90
8114;DHT22;4099;52.684;9.918;2023-04-01T14:13:10;9.70;99.90
8114;DHT22;4099;52.684;9.918;2023-04-01T14:18:29;9.40;99.90
8114;DHT22;4099;52.684;9.918;2023-04-01T14:23:48;9.20;99.90
8114;DHT22;4099;52.684;9.918;2023-04-01T14:28:58;9.30;99.90
8114;DHT22;4099;52.684;9.918;2023-04-01T14:34:11;9.30;99.90
8114;DHT22;4099;52.684;9.918;2023-04-01T14:39:38;9.30;99.90
8114;DHT22;4099;52.684;9.918;2023-04-01T14:45:07;9.00;99.90
8114;DHT22;4099;52.684;9.918;2023-04-01T14:50:16;9.00;99.90
8114;DHT22;4099;52.684;9.918;2023-04-01T14:55:28;8.90;99.90
8114;DHT22;4099;52.684;9.918;2023-04-01T15:00:43;8.80;99.90
8114;DHT22;4099;52.684;9.918;2023-04-01T15:05:51;8.80;99.90
8114;DHT22;4099;52.684;9.918;2023-04-01T15:16:23;8.60;99.90
8114;DHT22;4099;52.684;9.918;2023-04-01T15:21:42;8.50;99.90
8114;DHT22;4099;52.684;9.918;2023-04-01T15:27:06;8.50;99.90
8114;DHT22;4099;52.684;9.918;2023-04-01T15:32:17;8.30;99.90
8114;DHT22;4099;52.684;9.918;2023-04-01T15:37:33;8.20;99.90
8114;DHT22;4099;52.684;9.918;2023-04-01T15:42:47;8.00;99.90
8114;DHT22;4099;52.684;9.918;2023-04-01T15:47:59;8.10;99.90
8114;DHT22;4099;52.684;9.918;2023-04-01T15:53:12;8.10;99.90
8114;DHT22;4099;52.684;9.918;2023-04-01T15:58:35;8.10;99.90
8114;DHT22;4099;52.684;9.918;2023-04-01T16:03:48;7.90;99.90
8114;DHT22;4099;52.684;9.918;2023-04-01T16:09:12;7.80;99.90
8114;DHT22;4099;52.684;9.918;2023-04-01T16:14:26;7.90;99.90
8114;DHT22;4099;52.684;9.918;2023-04-01T16:19:51;7.70;99.90
8114;DHT22;4099;52.684;9.918;2023-04-01T16:25:07;7.70;99.90
8114;DHT22;4099;52.684;9.918;2023-04-01T16:30:34;7.50;99.90
8114;DHT22;4099;52.684;9.918;2023-04-01T16:35:43;7.30;99.90
8114;DHT22;4099;52.684;9.918;2023-04-01T16:40:52;7.30;99.90
8114;DHT22;4099;52.684;9.918;2023-04-01T16:46:26;7.10;99.90
8114;DHT22;4099;52.684;9.918;2023-04-01T16:51:37;6.90;99.90
8114;DHT22;4099;52.684;9.918;2023-04-01T16:56:46;6.70;99.90
8114;DHT22;4099;52.684;9.918;2023-04-01T17:01:53;6.70;99.90
8114;DHT22;4099;52.684;9.918;2023-04-01T17:07:05;6.80;99.90
8114;DHT22;4099;52.684;9.918;2023-04-01T17:12:14;6.70;99.90
8114;DHT22;4099;52.684;9.918;2023-04-01T17:17:29;6.70;99.90
8114;DHT22;4099;52.684;9.918;2023-04-01T17:22:39;6.50;99.90
8114;DHT22;4099;52.684;9.918;2023-04-01T17:27:51;6.50;99.90
8114;DHT22;4099;52.684;9.918;2023-04-01T17:33:10;6.50;99.90
8114;DHT22;4099;52.684;9.918;2023-04-01T17:38:20;6.30;99.90
8114;DHT22;4099;52.684;9.918;2023-04-01T17:43:35;6.20;99.90
8114;DHT22;4099;52.684;9.918;2023-04-01T17:48:47;6.20;99.90
8114;DHT22;4099;52.684;9.918;2023-04-01T17:54:02;6.30;99.90
8114;DHT22;4099;52.684;9.918;2023-04-01T17:59:11;6.30;99.90
8114;DHT22;4099;52.684;9.918;2023-04-01T18:04:37;6.20;99.90
8114;DHT22;4099;52.684;9.918;2023-04-01T18:09:55;6.20;99.90
8114;DHT22;4099;52.684;9.918;2023-04-01T18:15:19;6.00;99.90
8114;DHT22;4099;52.684;9.918;2023-04-01T18:20:33;5.80;99.90
8114;DHT22;4099;52.684;9.918;2023-04-01T18:25:38;5.90;99.90
8114;DHT22;4099;52.684;9.918;2023-04-01T18:30:42;5.90;99.90
8114;DHT22;4099;52.684;9.918;2023-04-01T18:35:49;5.70;99.90
8114;DHT22;4099;52.684;9.918;2023-04-01T18:41:07;5.70;99.90
8114;DHT22;4099;52.684;9.918;2023-04-01T18:46:17;5.60;99.90
8114;DHT22;4099;52.684;9.918;2023-04-01T18:51:23;5.50;99.90
8114;DHT22;4099;52.684;9.918;2023-04-01T18:56:30;5.40;99.90
8114;DHT22;4099;52.684;9.918;2023-04-01T19:01:39;5.40;99.90
8114;DHT22;4099;52.684;9.918;2023-04-01T19:06:44;5.30;99.90
8114;DHT22;4099;52.684;9.918;2023-04-01T19:17:32;5.30;99.90
8114;DHT22;4099;52.684;9.918;2023-04-01T19:22:52;5.20;99.90
8114;DHT22;4099;52.684;9.918;2023-04-01T19:28:03;5.20;99.90
8114;DHT22;4099;52.684;9.918;2023-04-01T19:33:22;5.10;99.90
8114;DHT22;4099;52.684;9.918;2023-04-01T19:38:30;5.10;99.90
8114;DHT22;4099;52.684;9.918;2023-04-01T19:43:50;5.10;99.90
8114;DHT22;4099;52.684;9.918;2023-04-01T19:49:03;5.00;99.90
8114;DHT22;4099;52.684;9.918;2023-04-01T19:54:21;4.90;99.90
8114;DHT22;4099;52.684;9.918;2023-04-01T19:59:31;4.80;99.90
8114;DHT22;4099;52.684;9.918;2023-04-01T20:04:40;4.80;99.90
8114;DHT22;4099;52.684;9.918;2023-04-01T20:09:51;4.80;99.90
8114;DHT22;4099;52.684;9.918;2023-04-01T20:14:57;4.90;99.90
8114;DHT22;4099;52.684;9.918;2023-04-01T20:20:02;4.90;99.90
8114;DHT22;4099;52.684;9.918;2023-04-01T20:25:11;4.90;99.90
8114;DHT22;4099;52.684;9.918;2023-04-01T20:30:55;4.70;99.90
8114;DHT22;4099;52.684;9.918;2023-04-01T20:36:06;4.70;99.90
8114;DHT22;4099;52.684;9.918;2023-04-01T20:41:16;4.60;99.90
8114;DHT22;4099;52.684;9.918;2023-04-01T20:46:27;4.60;99.90
8114;DHT22;4099;52.684;9.918;2023-04-01T20:51:33;4.50;99.90
8114;DHT22;4099;52.684;9.918;2023-04-01T20:56:50;4.40;99.90
8114;DHT22;4099;52.684;9.918;2023-04-01T21:02:08;4.50;99.90
8114;DHT22;4099;52.684;9.918;2023-04-01T21:07:24;4.30;99.90
8114;DHT22;4099;52.684;9.918;2023-04-01T21:12:35;4.40;99.90
8114;DHT22;4099;52.684;9.918;2023-04-01T21:17:53;4.30;99.90
8114;DHT22;4099;52.684;9.918;2023-04-01T21:23:17;4.30;99.90
8114;DHT22;4099;52.684;9.918;2023-04-01T21:28:34;4.30;99.90
8114;DHT22;4099;52.684;9.918;2023-04-01T21:34:07;4.30;99.90
8114;DHT22;4099;52.684;9.918;2023-04-01T21:39:26;4.20;99.90
8114;DHT22;4099;52.684;9.918;2023-04-01T21:44:48;4.10;99.90
8114;DHT22;4099;52.684;9.918;2023-04-01T21:50:23;4.00;99.90
8114;DHT22;4099;52.684;9.918;2023-04-01T21:55:53;4.00;99.90
8114;DHT22;4099;52.684;9.918;2023-04-01T22:01:11;3.90;99.90
8114;DHT22;4099;52.684;9.918;2023-04-01T22:06:22;3.70;99.90
8114;DHT22;4099;52.684;9.918;2023-04-01T22:11:34;3.80;99.90
8114;DHT22;4099;52.684;9.918;2023-04-01T22:16:42;3.80;99.90
8114;DHT22;4099;52.684;9.918;2023-04-01T22:21:53;3.80;99.90
8114;DHT22;4099;52.684;9.918;2023-04-01T22:27:06;3.70;99.90
8114;DHT22;4099;52.684;9.918;2023-04-01T22:32:15;3.70;99.90
8114;DHT22;4099;52.684;9.918;2023-04-01T22:37:26;3.60;99.90
8114;DHT22;4099;52.684;9.918;2023-04-01T22:42:40;3.60;99.90
8114;DHT22;4099;52.684;9.918;2023-04-01T22:47:47;3.60;99.90
8114;DHT22;4099;52.684;9.918;2023-04-01T22:52:58;3.50;99.90
8114;DHT22;4099;52.684;9.918;2023-04-01T22:58:05;3.30;99.90
8114;DHT22;4099;52.684;9.918;2023-04-01T23:03:13;3.20;99.90
8114;DHT22;4099;52.684;9.918;2023-04-01T23:08:40;3.10;99.90
8114;DHT22;4099;52.684;9.918;2023-04-01T23:13:49;3.10;99.90
8114;DHT22;4099;52.684;9.918;2023-04-01T23:18:55;3.10;99.90
8114;DHT22;4099;52.684;9.918;2023-04-01T23:24:07;2.90;99.90
8114;DHT22;4099;52.684;9.918;2023-04-01T23:29:15;2.90;99.90
8114;DHT22;4099;52.684;9.918;2023-04-01T23:34:25;3.00;99.90
8114;DHT22;4099;52.684;9.918;2023-04-01T23:39:32;2.80;99.90
8114;DHT22;4099;52.684;9.918;2023-04-01T23:44:36;2.80;99.90
8114;DHT22;4099;52.684;9.918;2023-04-01T23:49:40;2.80;99.90
8114;DHT22;4099;52.684;9.918;2023-04-01T23:54:49;2.60;99.90
